WB0VYV Weather Reports


Display with metric or nautical units.
time (UTC)temp
F
wind
direction
speed
MPH
gust
MPH
rain 1hr
in
rain 24hr
in
rain mn
in
humidity
%
barometer
mb
20210625072604 69 293 0.0 5.0 0.01 2.74 0.31 94 1007.9
20210625071604 69 228 0.0 2.0 0.02 2.74 0.31 94 1007.7
20210625070604 70 213 0.0 0.0 0.05 2.74 0.31 94 1006.9
20210625065601 70 211 0.0 0.0 0.10 2.74 0.31 94 1006.3
20210625064605 70 77 0.0 0.0 0.14 2.74 0.31 94 1006.1
20210625063605 69 80 0.0 2.0 0.20 2.74 0.31 94 1006.1
20210625062604 69 38 0.0 1.0 0.20 2.73 0.30 93 1006.1
20210625061604 69 90 0.0 7.0 0.24 2.72 0.29 93 1006.3
20210625060608 69 165 0.0 0.0 0.24 2.69 0.26 94 1008.0
20210625055606 69 201 0.0 0.0 0.21 2.64 0.21 94 1008.8
20210625054606 69 201 0.0 0.0 0.20 2.60 0.17 93 1009.0
20210625053608 69 201 0.0 0.0 0.20 2.54 0.11 93 1009.5
20210625052607 69 201 0.0 0.0 0.20 2.53 0.10 93 1009.6
20210625051612 69 201 0.0 0.0 0.17 2.48 0.05 93 1010.3
20210625050611 69 201 0.0 0.0 0.17 2.45 0.02 93 1010.4
20210625045607 69 201 0.0 0.0 0.17 2.43 2.43 93 1010.2
20210625044606 69 201 0.0 0.0 0.15 2.40 2.40 93 1010.4
20210625043605 69 201 0.0 0.0 0.09 2.34 2.34 93 1010.2
20210625042609 69 201 0.0 2.0 0.10 2.33 2.33 93 1009.9
20210625035538 68 198 0.0 2.0 0.78 2.26 2.26 92 1009.6
20210625034535 68 199 0.0 1.0 0.81 2.25 2.25 92 1008.9
20210625033528 68 209 0.0 6.0 0.84 2.25 2.25 92 1009.3
20210625032539 69 79 1.0 12.0 0.84 2.23 2.23 92 1008.5
20210625031544 70 80 0.0 2.0 0.66 2.04 2.04 92 1010.2
20210625030532 70 309 0.0 19.0 0.36 1.74 1.74 92 1011.7
20210625025535 71 254 0.0 4.0 0.09 1.47 1.47 92 1011.2
20210625024534 71 5 0.0 1.0 0.05 1.43 1.43 92 1010.2
20210625023531 70 119 0.0 0.0 0.03 1.41 1.41 92 1009.2
20210625022546 71 200 0.0 0.0 0.01 1.39 1.39 92 1008.7
20210625021541 71 200 0.0 0.0 0.04 1.38 1.38 92 1009.3
20210625020545 71 140 0.0 0.0 0.08 1.38 1.38 92 1008.8
20210625015543 71 140 0.0 2.0 0.10 1.38 1.38 92 1009.0
20210625014543 71 153 0.0 2.0 0.10 1.38 1.38 92 1009.3
20210625013544 71 112 0.0 5.0 0.10 1.38 1.38 92 1009.2
20210625012536 71 84 0.0 2.0 0.10 1.38 1.38 92 1009.7
20210625011537 71 63 0.0 4.0 0.07 1.34 1.34 91 1010.0
20210625010537 71 171 0.0 10.0 0.60 1.30 1.30 90 1010.0
20210625005535 72 193 1.0 5.0 0.92 1.28 1.28 91 1009.6
20210625004535 73 138 1.0 10.0 0.92 1.28 1.28 90 1009.8
20210625003533 74 171 1.0 10.0 0.93 1.28 1.28 90 1009.4
20210625002537 74 11 0.0 1.0 1.01 1.28 1.28 90 1010.0
20210625001536 74 101 1.0 7.0 0.99 1.26 1.26 87 1009.7
20210625000538 76 329 0.0 5.0 0.41 0.68 0.68 87 1011.4
20210624235533 77 138 0.0 0.0 0.09 0.36 0.36 86 1009.9
20210624234536 79 160 0.0 0.0 0.09 0.36 0.36 83 1009.2
20210624233534 81 194 0.0 1.0 0.07 0.34 0.34 80 1009.5
20210624232529 81 196 0.0 0.0 0.00 0.27 0.27 79 1009.9
20210624231547 81 196 0.0 0.0 0.00 0.27 0.27 78 1010.2
20210624230547 82 196 0.0 2.0 0.00 0.27 0.27 77 1010.1
20210624225544 83 198 0.0 2.0 0.00 0.27 0.27 76 1010.1
20210624224544 84 198 0.0 0.0 0.00 0.27 0.27 74 1010.1
20210624223528 84 198 0.0 0.0 0.00 0.27 0.27 73 1010.1
20210624222528 84 198 0.0 0.0 0.00 0.27 0.27 72 1010.3
20210624221529 84 198 0.0 2.0 0.00 0.27 0.27 73 1010.2
20210624220548 84 210 0.0 1.0 0.00 0.27 0.27 73 1010.4
20210624215529 84 203 0.0 5.0 0.00 0.27 0.27 72 1010.3
20210624214530 83 186 0.0 2.0 0.00 0.27 0.27 72 1010.4
20210624213532 83 186 0.0 5.0 0.00 0.27 0.27 72 1010.6
20210624212532 84 213 1.0 3.0 0.00 0.27 0.27 71 1010.7
20210624211531 84 172 0.0 1.0 0.00 0.27 0.27 71 1010.6
20210624210536 84 198 0.0 7.0 0.00 0.27 0.27 71 1010.7
20210624205534 84 267 0.0 5.0 0.00 0.27 0.27 69 1010.8
20210624204534 84 309 0.0 6.0 0.00 0.27 0.27 72 1010.7
20210624203533 83 187 3.0 7.0 0.00 0.27 0.27 69 1010.8
20210624202532 84 243 0.0 8.0 0.00 0.27 0.27 69 1010.8
20210624201535 83 292 0.0 4.0 0.00 0.27 0.27 69 1011.0
20210624200535 84 210 0.0 9.0 0.00 0.27 0.27 68 1011.1
20210624195532 85 213 1.0 11.0 0.00 0.27 0.27 67 1011.2
20210624194532 84 242 3.0 11.0 0.00 0.27 0.27 67 1011.1
20210624193531 85 233 2.0 11.0 0.00 0.27 0.27 67 1011.1
20210624192531 84 184 4.0 12.0 0.00 0.27 0.27 68 1011.0
20210624191529 83 205 2.0 10.0 0.00 0.27 0.27 68 1010.8
20210624190530 82 194 2.0 12.0 0.00 0.27 0.27 69 1010.7
20210624185548 82 231 1.0 9.0 0.00 0.27 0.27 69 1010.5
20210624184533 81 205 1.0 7.0 0.00 0.27 0.27 71 1010.4
20210624183549 80 183 1.0 8.0 0.00 0.27 0.27 71 1010.3
20210624182546 80 204 1.0 6.0 0.00 0.27 0.27 70 1010.0
20210624181547 79 223 0.0 6.0 0.00 0.27 0.27 72 1009.9
20210624180548 79 209 0.0 6.0 0.00 0.27 0.27 75 1009.7
20210624175549 78 198 1.0 5.0 0.00 0.27 0.27 73 1009.7
20210624174550 77 192 2.0 7.0 0.00 0.27 0.27 73 1009.8
20210624173549 77 198 0.0 8.0 0.00 0.27 0.27 74 1009.8
20210624172547 77 211 0.0 5.0 0.00 0.27 0.27 74 1009.9
20210624171531 76 198 1.0 6.0 0.00 0.27 0.27 75 1009.9
20210624170531 76 178 0.0 10.0 0.00 0.27 0.27 74 1009.8
20210624165548 76 203 2.0 11.0 0.00 0.27 0.27 76 1009.9
20210624164545 75 217 1.0 10.0 0.00 0.27 0.27 74 1010.2
20210624163544 75 201 4.0 13.0 0.00 0.27 0.27 75 1010.5
20210624162547 74 200 2.0 10.0 0.00 0.27 0.27 76 1010.0
20210624161545 74 182 2.0 7.0 0.00 0.27 0.27 78 1009.6
20210624160545 74 168 0.0 9.0 0.00 0.27 0.27 78 1009.3
20210624155542 74 183 2.0 14.0 0.00 0.27 0.27 78 1009.4
20210624154544 73 203 3.0 15.0 0.00 0.27 0.27 81 1009.6
20210624153543 71 196 2.0 15.0 0.00 0.27 0.27 87 1009.7
20210624152532 70 183 2.0 9.0 0.00 0.27 0.27 90 1010.1
20210624151531 70 196 1.0 9.0 0.00 0.27 0.27 91 1010.3
20210624150548 70 168 1.0 5.0 0.00 0.27 0.27 91 1010.4
20210624145546 70 188 2.0 10.0 0.00 0.27 0.27 91 1010.5
20210624144549 70 109 1.0 14.0 0.00 0.27 0.27 91 1010.7
20210624143548 69 182 2.0 11.0 0.00 0.27 0.27 91 1011.0
20210624142547 69 162 4.0 19.0 0.01 0.27 0.27 92 1011.4
20210624141546 69 183 3.0 9.0 0.01 0.27 0.27 92 1011.1
20210624140551 69 173 0.0 5.0 0.02 0.27 0.27 91 1009.9
20210624135539 69 186 1.0 11.0 0.02 0.27 0.27 91 1010.1
20210624134539 69 168 3.0 10.0 0.02 0.27 0.27 91 1009.7
20210624133539 69 167 2.0 7.0 0.02 0.27 0.27 91 1011.1
20210624132540 69 180 0.0 6.0 0.26 0.26 0.26 91 1011.9
20210624131542 69 171 1.0 12.0 0.26 0.26 0.26 91 1012.7
20210624130541 69 215 0.0 0.0 0.25 0.25 0.25 90 1012.2
20210624125536 69 215 0.0 0.0 0.25 0.25 0.25 90 1012.1
20210624124534 69 215 0.0 1.0 0.25 0.25 0.25 89 1012.1
20210624123534 69 215 0.0 0.0 0.25 0.25 0.25 88 1012.2
20210624122536 70 214 0.0 0.0 0.00 0.00 0.00 87 1012.3
20210624121535 70 221 0.0 1.0 0.00 0.00 0.00 85 1013.8
20210624120551 71 252 0.0 4.0 0.00 0.00 0.00 81 1013.5
20210624115544 72 197 1.0 4.0 0.00 0.00 0.00 78 1013.4
20210624114543 72 226 0.0 4.0 0.00 0.00 0.00 76 1012.4
20210624113541 72 199 1.0 6.0 0.00 0.00 0.00 76 1011.8
20210624112543 72 190 0.0 1.0 0.00 0.00 0.00 75 1011.5
20210624111538 72 184 1.0 5.0 0.00 0.00 0.00 75 1011.5
20210624110537 71 194 0.0 7.0 0.00 0.00 0.00 74 1011.6
20210624105536 71 185 0.0 1.0 0.00 0.00 0.00 74 1011.7
20210624104550 71 194 0.0 5.0 0.00 0.00 0.00 74 1011.2
20210624103532 71 188 0.0 7.0 0.00 0.00 0.00 74 1010.9
20210624102548 70 186 0.0 5.0 0.00 0.00 0.00 73 1010.9
20210624101544 70 190 1.0 5.0 0.00 0.00 0.00 73 1010.6
20210624100545 70 191 0.0 4.0 0.00 0.00 0.00 73 1010.4
20210624095542 70 182 0.0 2.0 0.00 0.00 0.00 73 1010.4
20210624094546 70 190 1.0 6.0 0.00 0.00 0.00 73 1010.5
20210624093548 70 190 0.0 0.0 0.00 0.00 0.00 72 1010.5
20210624092549 70 184 0.0 0.0 0.00 0.00 0.00 72 1010.7
20210624091550 70 188 0.0 4.0 0.00 0.00 0.00 72 1010.7
20210624090535 70 187 0.0 5.0 0.00 0.00 0.00 72 1010.4
20210624085551 70 184 0.0 6.0 0.00 0.00 0.00 72 1010.0
20210624084552 70 183 0.0 1.0 0.00 0.00 0.00 71 1010.4
20210624083553 71 185 0.0 2.0 0.00 0.00 0.00 71 1011.0
20210624082552 71 186 0.0 2.0 0.00 0.00 0.00 70 1011.0
20210624081537 71 186 0.0 4.0 0.00 0.00 0.00 69 1010.9
20210624080537 72 189 0.0 4.0 0.00 0.00 0.00 69 1010.7
20210624075547 72 174 1.0 5.0 0.00 0.00 0.00 68 1010.5
20210624074546 72 190 0.0 2.0 0.00 0.00 0.00 68 1010.6
20210624073547 72 189 0.0 6.0 0.00 0.00 0.00 68 1010.7